sensor_id;sensor_type;location;lat;lon;timestamp;pressure;altitude;pressure_sealevel;temperature;humidity
79123;BME280;68526;44.600;26.032;2023-11-19T00:00:04;100230.00;;;6.76;58.96
79123;BME280;68526;44.600;26.032;2023-11-19T00:00:22;100224.22;;;6.78;59.02
79123;BME280;68526;44.600;26.032;2023-11-19T00:00:38;100230.50;;;6.78;59.31
79123;BME280;68526;44.600;26.032;2023-11-19T00:00:55;100225.84;;;6.79;59.15
79123;BME280;68526;44.600;26.032;2023-11-19T00:01:12;100226.66;;;6.79;58.64
79123;BME280;68526;44.600;26.032;2023-11-19T00:01:28;100228.25;;;6.80;59.16
79123;BME280;68526;44.600;26.032;2023-11-19T00:01:43;100234.81;;;6.79;58.79
79123;BME280;68526;44.600;26.032;2023-11-19T00:01:59;100234.50;;;6.81;58.20
79123;BME280;68526;44.600;26.032;2023-11-19T00:02:15;100228.56;;;6.79;58.38
79123;BME280;68526;44.600;26.032;2023-11-19T00:02:31;100230.19;;;6.80;58.30
79123;BME280;68526;44.600;26.032;2023-11-19T00:02:47;100233.72;;;6.80;58.12
79123;BME280;68526;44.600;26.032;2023-11-19T00:03:04;100227.97;;;6.82;58.00
79123;BME280;68526;44.600;26.032;2023-11-19T00:03:21;100235.03;;;6.83;58.75
79123;BME280;68526;44.600;26.032;2023-11-19T00:03:37;100231.53;;;6.82;58.23
79123;BME280;68526;44.600;26.032;2023-11-19T00:03:53;100229.06;;;6.81;58.23
79123;BME280;68526;44.600;26.032;2023-11-19T00:04:09;100229.59;;;6.83;58.32
79123;BME280;68526;44.600;26.032;2023-11-19T00:04:25;100230.69;;;6.82;58.23
79123;BME280;68526;44.600;26.032;2023-11-19T00:04:40;100229.59;;;6.83;57.95
79123;BME280;68526;44.600;26.032;2023-11-19T00:04:57;100223.94;;;6.79;57.86
79123;BME280;68526;44.600;26.032;2023-11-19T00:05:13;100232.59;;;6.81;57.48
79123;BME280;68526;44.600;26.032;2023-11-19T00:05:29;100228.78;;;6.82;57.83
79123;BME280;68526;44.600;26.032;2023-11-19T00:05:45;100231.22;;;6.84;57.54
79123;BME280;68526;44.600;26.032;2023-11-19T00:06:01;100223.34;;;6.82;57.57
79123;BME280;68526;44.600;26.032;2023-11-19T00:06:19;100221.72;;;6.81;57.68
79123;BME280;68526;44.600;26.032;2023-11-19T00:06:35;100230.09;;;6.85;57.77
79123;BME280;68526;44.600;26.032;2023-11-19T00:06:52;100226.25;;;6.86;57.67
79123;BME280;68526;44.600;26.032;2023-11-19T00:07:08;100229.00;;;6.86;58.25
79123;BME280;68526;44.600;26.032;2023-11-19T00:07:25;100213.94;;;6.75;56.98
79123;BME280;68526;44.600;26.032;2023-11-19T00:07:42;100239.97;;;6.81;57.62
79123;BME280;68526;44.600;26.032;2023-11-19T00:07:57;100236.13;;;6.82;57.84
79123;BME280;68526;44.600;26.032;2023-11-19T00:08:15;100232.91;;;6.80;58.07
79123;BME280;68526;44.600;26.032;2023-11-19T00:08:31;100238.03;;;6.81;58.30
79123;BME280;68526;44.600;26.032;2023-11-19T00:08:47;100231.53;;;6.82;57.93
79123;BME280;68526;44.600;26.032;2023-11-19T00:09:03;100235.53;;;6.85;58.09
79123;BME280;68526;44.600;26.032;2023-11-19T00:09:19;100234.44;;;6.86;58.40
79123;BME280;68526;44.600;26.032;2023-11-19T00:09:35;100236.03;;;6.87;58.20
79123;BME280;68526;44.600;26.032;2023-11-19T00:09:52;100231.41;;;6.87;58.27
79123;BME280;68526;44.600;26.032;2023-11-19T00:10:11;100231.41;;;6.87;58.26
79123;BME280;68526;44.600;26.032;2023-11-19T00:10:27;100230.59;;;6.87;58.27
79123;BME280;68526;44.600;26.032;2023-11-19T00:10:44;100228.69;;;6.87;58.12
79123;BME280;68526;44.600;26.032;2023-11-19T00:11:01;100231.41;;;6.87;58.11
79123;BME280;68526;44.600;26.032;2023-11-19T00:11:18;100232.25;;;6.88;58.27
79123;BME280;68526;44.600;26.032;2023-11-19T00:11:34;100233.84;;;6.89;58.39
79123;BME280;68526;44.600;26.032;2023-11-19T00:11:50;100239.31;;;6.89;58.32
79123;BME280;68526;44.600;26.032;2023-11-19T00:12:06;100239.31;;;6.89;58.54
79123;BME280;68526;44.600;26.032;2023-11-19T00:12:22;100247.47;;;6.89;58.55
79123;BME280;68526;44.600;26.032;2023-11-19T00:12:41;100232.75;;;6.90;58.67
79123;BME280;68526;44.600;26.032;2023-11-19T00:12:59;100236.28;;;6.90;59.03
79123;BME280;68526;44.600;26.032;2023-11-19T00:13:15;100235.47;;;6.90;58.51
79123;BME280;68526;44.600;26.032;2023-11-19T00:13:31;100230.03;;;6.90;58.50
79123;BME280;68526;44.600;26.032;2023-11-19T00:13:47;100234.34;;;6.91;58.69
79123;BME280;68526;44.600;26.032;2023-11-19T00:14:03;100238.50;;;6.88;58.31
79123;BME280;68526;44.600;26.032;2023-11-19T00:14:19;100232.53;;;6.86;58.41
79123;BME280;68526;44.600;26.032;2023-11-19T00:14:35;100236.84;;;6.87;58.96
79123;BME280;68526;44.600;26.032;2023-11-19T00:14:51;100235.25;;;6.86;58.45
79123;BME280;68526;44.600;26.032;2023-11-19T00:15:08;100237.78;;;6.83;58.41
79123;BME280;68526;44.600;26.032;2023-11-19T00:15:26;100233.94;;;6.84;58.14
79123;BME280;68526;44.600;26.032;2023-11-19T00:15:42;100245.13;;;6.82;58.13
79123;BME280;68526;44.600;26.032;2023-11-19T00:15:58;100231.22;;;6.84;58.02
79123;BME280;68526;44.600;26.032;2023-11-19T00:16:14;100237.47;;;6.84;58.06
79123;BME280;68526;44.600;26.032;2023-11-19T00:16:30;100245.03;;;6.87;57.74
79123;BME280;68526;44.600;26.032;2023-11-19T00:16:47;100238.56;;;6.83;57.43
79123;BME280;68526;44.600;26.032;2023-11-19T00:17:03;100236.13;;;6.82;57.00
79123;BME280;68526;44.600;26.032;2023-11-19T00:17:20;100233.13;;;6.83;56.75
79123;BME280;68526;44.600;26.032;2023-11-19T00:17:36;100234.75;;;6.84;57.12
79123;BME280;68526;44.600;26.032;2023-11-19T00:17:52;100239.38;;;6.84;56.16
79123;BME280;68526;44.600;26.032;2023-11-19T00:18:08;100244.22;;;6.87;56.96
79123;BME280;68526;44.600;26.032;2023-11-19T00:18:24;100232.81;;;6.85;57.00
79123;BME280;68526;44.600;26.032;2023-11-19T00:18:40;100237.97;;;6.86;56.44
79123;BME280;68526;44.600;26.032;2023-11-19T00:18:56;100240.41;;;6.88;57.01
79123;BME280;68526;44.600;26.032;2023-11-19T00:19:12;100239.88;;;6.86;57.63
79123;BME280;68526;44.600;26.032;2023-11-19T00:19:28;100242.31;;;6.87;57.21
79123;BME280;68526;44.600;26.032;2023-11-19T00:19:44;100239.56;;;6.87;57.47
79123;BME280;68526;44.600;26.032;2023-11-19T00:20:00;100237.97;;;6.86;57.74
79123;BME280;68526;44.600;26.032;2023-11-19T00:20:16;100244.75;;;6.89;57.82
79123;BME280;68526;44.600;26.032;2023-11-19T00:20:32;100238.78;;;6.87;58.11
79123;BME280;68526;44.600;26.032;2023-11-19T00:20:49;100249.38;;;6.88;57.74
79123;BME280;68526;44.600;26.032;2023-11-19T00:21:05;100243.13;;;6.88;58.05
79123;BME280;68526;44.600;26.032;2023-11-19T00:21:21;100240.09;;;6.89;57.91
79123;BME280;68526;44.600;26.032;2023-11-19T00:21:37;100249.38;;;6.88;58.01
79123;BME280;68526;44.600;26.032;2023-11-19T00:21:53;100246.66;;;6.88;57.92
79123;BME280;68526;44.600;26.032;2023-11-19T00:22:09;100242.03;;;6.89;58.03
79123;BME280;68526;44.600;26.032;2023-11-19T00:22:25;100241.22;;;6.88;58.36
79123;BME280;68526;44.600;26.032;2023-11-19T00:22:41;100246.94;;;6.87;58.21
79123;BME280;68526;44.600;26.032;2023-11-19T00:22:58;100248.59;;;6.88;58.22
79123;BME280;68526;44.600;26.032;2023-11-19T00:23:16;100246.13;;;6.86;58.85
79123;BME280;68526;44.600;26.032;2023-11-19T00:23:32;100246.13;;;6.86;58.98
79123;BME280;68526;44.600;26.032;2023-11-19T00:23:48;100246.94;;;6.87;58.44
79123;BME280;68526;44.600;26.032;2023-11-19T00:24:04;100243.22;;;6.83;59.21
79123;BME280;68526;44.600;26.032;2023-11-19T00:24:20;100238.56;;;6.83;59.27
79123;BME280;68526;44.600;26.032;2023-11-19T00:24:36;100247.56;;;6.84;59.74
79123;BME280;68526;44.600;26.032;2023-11-19T00:24:53;100241.81;;;6.85;59.55
79123;BME280;68526;44.600;26.032;2023-11-19T00:25:09;100243.41;;;6.86;59.99
79123;BME280;68526;44.600;26.032;2023-11-19T00:25:25;100240.78;;;6.81;60.16
79123;BME280;68526;44.600;26.032;2023-11-19T00:25:41;100243.41;;;6.86;59.68
79123;BME280;68526;44.600;26.032;2023-11-19T00:25:56;100246.44;;;6.85;60.35
79123;BME280;68526;44.600;26.032;2023-11-19T00:26:12;100246.94;;;6.87;60.54
79123;BME280;68526;44.600;26.032;2023-11-19T00:26:30;100243.13;;;6.88;59.94
79123;BME280;68526;44.600;26.032;2023-11-19T00:26:46;100238.03;;;6.81;60.05
79123;BME280;68526;44.600;26.032;2023-11-19T00:27:02;100239.88;;;6.86;60.38
79123;BME280;68526;44.600;26.032;2023-11-19T00:27:18;100246.44;;;6.85;60.75
79123;BME280;68526;44.600;26.032;2023-11-19T00:27:34;100249.97;;;6.85;60.31
79123;BME280;68526;44.600;26.032;2023-11-19T00:27:50;100248.06;;;6.86;60.31
79123;BME280;68526;44.600;26.032;2023-11-19T00:28:08;100245.31;;;6.86;60.42
79123;BME280;68526;44.600;26.032;2023-11-19T00:28:24;100252.19;;;6.83;60.72
79123;BME280;68526;44.600;26.032;2023-11-19T00:28:40;100244.53;;;6.85;60.60
79123;BME280;68526;44.600;26.032;2023-11-19T00:28:56;100245.63;;;6.84;60.31
79123;BME280;68526;44.600;26.032;2023-11-19T00:29:13;100250.28;;;6.84;60.50
79123;BME280;68526;44.600;26.032;2023-11-19T00:29:29;100248.34;;;6.84;60.68
79123;BME280;68526;44.600;26.032;2023-11-19T00:29:45;100243.22;;;6.83;60.65
79123;BME280;68526;44.600;26.032;2023-11-19T00:30:01;100244.53;;;6.85;60.75
79123;BME280;68526;44.600;26.032;2023-11-19T00:30:20;100250.78;;;6.86;61.28
79123;BME280;68526;44.600;26.032;2023-11-19T00:30:36;100249.16;;;6.85;60.79
79123;BME280;68526;44.600;26.032;2023-11-19T00:30:52;100253.00;;;6.84;61.11
79123;BME280;68526;44.600;26.032;2023-11-19T00:31:08;100253.81;;;6.84;60.79
79123;BME280;68526;44.600;26.032;2023-11-19T00:31:24;100253.00;;;6.84;61.39
79123;BME280;68526;44.600;26.032;2023-11-19T00:31:43;100252.47;;;6.82;60.98
79123;BME280;68526;44.600;26.032;2023-11-19T00:31:59;100253.56;;;6.81;61.22
79123;BME280;68526;44.600;26.032;2023-11-19T00:32:15;100254.91;;;6.83;61.24
79123;BME280;68526;44.600;26.032;2023-11-19T00:32:31;100251.09;;;6.84;60.79
79123;BME280;68526;44.600;26.032;2023-11-19T00:32:47;100256.22;;;6.86;60.75
79123;BME280;68526;44.600;26.032;2023-11-19T00:33:03;100252.78;;;6.80;60.89
79123;BME280;68526;44.600;26.032;2023-11-19T00:33:20;100253.56;;;6.81;61.60
79123;BME280;68526;44.600;26.032;2023-11-19T00:33:37;100254.38;;;6.81;61.14
79123;BME280;68526;44.600;26.032;2023-11-19T00:33:53;100248.13;;;6.81;60.75
79123;BME280;68526;44.600;26.032;2023-11-19T00:34:09;100257.91;;;6.82;60.81
79123;BME280;68526;44.600;26.032;2023-11-19T00:34:26;100251.97;;;6.80;61.19
79123;BME280;68526;44.600;26.032;2023-11-19T00:34:43;100250.84;;;6.81;61.43
79123;BME280;68526;44.600;26.032;2023-11-19T00:34:59;100246.50;;;6.80;61.52
79123;BME280;68526;44.600;26.032;2023-11-19T00:35:15;100249.53;;;6.78;61.93
79123;BME280;68526;44.600;26.032;2023-11-19T00:35:31;100250.34;;;6.79;61.65
79123;BME280;68526;44.600;26.032;2023-11-19T00:35:48;100249.25;;;6.80;61.40
79123;BME280;68526;44.600;26.032;2023-11-19T00:36:05;100240.28;;;6.79;61.52
79123;BME280;68526;44.600;26.032;2023-11-19T00:36:21;100250.34;;;6.79;61.59
79123;BME280;68526;44.600;26.032;2023-11-19T00:36:39;100249.03;;;6.76;61.50
79123;BME280;68526;44.600;26.032;2023-11-19T00:36:55;100249.03;;;6.76;61.44
79123;BME280;68526;44.600;26.032;2023-11-19T00:37:11;100252.03;;;6.75;61.83
79123;BME280;68526;44.600;26.032;2023-11-19T00:37:27;100251.47;;;6.78;61.78
79123;BME280;68526;44.600;26.032;2023-11-19T00:37:43;100248.22;;;6.76;61.59
79123;BME280;68526;44.600;26.032;2023-11-19T00:38:01;100252.28;;;6.78;61.78
79123;BME280;68526;44.600;26.032;2023-11-19T00:38:19;100259.63;;;6.78;61.89
79123;BME280;68526;44.600;26.032;2023-11-19T00:38:35;100254.50;;;6.76;61.70
79123;BME280;68526;44.600;26.032;2023-11-19T00:38:51;100249.84;;;6.77;61.84
79123;BME280;68526;44.600;26.032;2023-11-19T00:39:08;100250.13;;;6.75;61.90
79123;BME280;68526;44.600;26.032;2023-11-19T00:39:23;100256.69;;;6.74;62.04
79123;BME280;68526;44.600;26.032;2023-11-19T00:39:39;100256.97;;;6.73;62.29
79123;BME280;68526;44.600;26.032;2023-11-19T00:39:55;100247.72;;;6.74;62.34
79123;BME280;68526;44.600;26.032;2023-11-19T00:40:13;100252.84;;;6.75;61.89
79123;BME280;68526;44.600;26.032;2023-11-19T00:40:31;100255.88;;;6.74;62.42
79123;BME280;68526;44.600;26.032;2023-11-19T00:40:47;100254.25;;;6.73;63.27
79123;BME280;68526;44.600;26.032;2023-11-19T00:41:03;100251.53;;;6.73;62.45
79123;BME280;68526;44.600;26.032;2023-11-19T00:41:19;100248.59;;;6.69;62.38
79123;BME280;68526;44.600;26.032;2023-11-19T00:41:35;100249.63;;;6.73;62.10
79123;BME280;68526;44.600;26.032;2023-11-19T00:41:50;100256.97;;;6.73;62.29
79123;BME280;68526;44.600;26.032;2023-11-19T00:42:07;100252.34;;;6.73;62.38
79123;BME280;68526;44.600;26.032;2023-11-19T00:42:23;100255.16;;;6.68;62.01
79123;BME280;68526;44.600;26.032;2023-11-19T00:42:39;100251.03;;;6.71;62.24
79123;BME280;68526;44.600;26.032;2023-11-19T00:42:55;100255.06;;;6.73;62.16
79123;BME280;68526;44.600;26.032;2023-11-19T00:43:11;100251.03;;;6.71;61.68
79123;BME280;68526;44.600;26.032;2023-11-19T00:43:27;100251.53;;;6.73;62.27
79123;BME280;68526;44.600;26.032;2023-11-19T00:43:43;100260.50;;;6.73;61.65
79123;BME280;68526;44.600;26.032;2023-11-19T00:43:59;100253.16;;;6.74;62.61
79123;BME280;68526;44.600;26.032;2023-11-19T00:44:16;100255.38;;;6.72;62.67
79123;BME280;68526;44.600;26.032;2023-11-19T00:44:32;100258.09;;;6.72;63.15
79123;BME280;68526;44.600;26.032;2023-11-19T00:44:47;100245.59;;;6.71;62.65
79123;BME280;68526;44.600;26.032;2023-11-19T00:45:04;100255.16;;;6.68;62.94
79123;BME280;68526;44.600;26.032;2023-11-19T00:45:23;100257.56;;;6.69;62.62
79123;BME280;68526;44.600;26.032;2023-11-19T00:45:39;100253.75;;;6.71;62.66
79123;BME280;68526;44.600;26.032;2023-11-19T00:45:56;100256.25;;;6.67;62.49
79123;BME280;68526;44.600;26.032;2023-11-19T00:46:12;100255.94;;;6.68;62.23
79123;BME280;68526;44.600;26.032;2023-11-19T00:46:29;100260.59;;;6.68;62.71
79123;BME280;68526;44.600;26.032;2023-11-19T00:46:44;100251.31;;;6.69;62.38
79123;BME280;68526;44.600;26.032;2023-11-19T00:47:00;100252.13;;;6.69;62.12
79123;BME280;68526;44.600;26.032;2023-11-19T00:47:16;100252.13;;;6.69;62.59
79123;BME280;68526;44.600;26.032;2023-11-19T00:47:32;100251.31;;;6.69;62.30
79123;BME280;68526;44.600;26.032;2023-11-19T00:47:48;100251.84;;;6.71;62.54
79123;BME280;68526;44.600;26.032;2023-11-19T00:48:05;100260.00;;;6.71;62.17
79123;BME280;68526;44.600;26.032;2023-11-19T00:48:21;100256.19;;;6.72;62.15
79123;BME280;68526;44.600;26.032;2023-11-19T00:48:37;100255.38;;;6.72;62.53
79123;BME280;68526;44.600;26.032;2023-11-19T00:48:53;100249.63;;;6.73;62.47
79123;BME280;68526;44.600;26.032;2023-11-19T00:49:08;100250.50;;;6.68;63.91
79123;BME280;68526;44.600;26.032;2023-11-19T00:49:27;100256.25;;;6.67;62.85
79123;BME280;68526;44.600;26.032;2023-11-19T00:49:43;100253.22;;;6.68;62.96
79123;BME280;68526;44.600;26.032;2023-11-19T00:49:59;100250.50;;;6.68;63.03
79123;BME280;68526;44.600;26.032;2023-11-19T00:50:15;100258.41;;;6.70;62.51
79123;BME280;68526;44.600;26.032;2023-11-19T00:50:31;100253.75;;;6.71;62.50
79123;BME280;68526;44.600;26.032;2023-11-19T00:50:47;100252.41;;;6.68;63.08
79123;BME280;68526;44.600;26.032;2023-11-19T00:51:05;100248.09;;;6.67;62.77
79123;BME280;68526;44.600;26.032;2023-11-19T00:51:21;100248.59;;;6.69;62.79
79123;BME280;68526;44.600;26.032;2023-11-19T00:51:37;100249.13;;;6.71;62.76
79123;BME280;68526;44.600;26.032;2023-11-19T00:51:54;100255.38;;;6.72;62.13
79123;BME280;68526;44.600;26.032;2023-11-19T00:52:10;100249.94;;;6.72;62.62
79123;BME280;68526;44.600;26.032;2023-11-19T00:52:25;100247.50;;;6.70;62.38
79123;BME280;68526;44.600;26.032;2023-11-19T00:52:41;100248.59;;;6.69;62.25
79123;BME280;68526;44.600;26.032;2023-11-19T00:52:57;100249.41;;;6.69;62.12
79123;BME280;68526;44.600;26.032;2023-11-19T00:53:13;100247.50;;;6.70;62.26
79123;BME280;68526;44.600;26.032;2023-11-19T00:53:30;100245.59;;;6.71;62.11
79123;BME280;68526;44.600;26.032;2023-11-19T00:53:47;100247.22;;;6.72;61.99
79123;BME280;68526;44.600;26.032;2023-11-19T00:54:04;100251.84;;;6.71;62.02
79123;BME280;68526;44.600;26.032;2023-11-19T00:54:20;100243.69;;;6.71;62.17
79123;BME280;68526;44.600;26.032;2023-11-19T00:54:36;100252.34;;;6.73;62.20
79123;BME280;68526;44.600;26.032;2023-11-19T00:54:52;100255.38;;;6.72;62.37
79123;BME280;68526;44.600;26.032;2023-11-19T00:55:08;100245.28;;;6.72;62.18
79123;BME280;68526;44.600;26.032;2023-11-19T00:55:24;100247.72;;;6.74;62.06
79123;BME280;68526;44.600;26.032;2023-11-19T00:55:40;100255.38;;;6.72;62.53
79123;BME280;68526;44.600;26.032;2023-11-19T00:55:56;100246.97;;;6.68;62.43
79123;BME280;68526;44.600;26.032;2023-11-19T00:56:12;100246.16;;;6.67;62.37
79123;BME280;68526;44.600;26.032;2023-11-19T00:56:28;100254.34;;;6.67;63.62
79123;BME280;68526;44.600;26.032;2023-11-19T00:56:44;100253.22;;;6.68;64.00
79123;BME280;68526;44.600;26.032;2023-11-19T00:57:00;100246.97;;;6.68;64.11
79123;BME280;68526;44.600;26.032;2023-11-19T00:57:16;100251.63;;;6.67;64.29
79123;BME280;68526;44.600;26.032;2023-11-19T00:57:33;100257.06;;;6.67;63.63
79123;BME280;68526;44.600;26.032;2023-11-19T00:57:49;100260.28;;;6.69;63.39
79123;BME280;68526;44.600;26.032;2023-11-19T00:58:05;100259.19;;;6.71;63.48
79123;BME280;68526;44.600;26.032;2023-11-19T00:58:21;100258.66;;;6.68;63.01
79123;BME280;68526;44.600;26.032;2023-11-19T00:58:37;100252.41;;;6.68;63.16
79123;BME280;68526;44.600;26.032;2023-11-19T00:58:53;100256.25;;;6.67;62.94
79123;BME280;68526;44.600;26.032;2023-11-19T00:59:09;100255.94;;;6.68;62.64
79123;BME280;68526;44.600;26.032;2023-11-19T00:59:24;100254.03;;;6.69;62.93
79123;BME280;68526;44.600;26.032;2023-11-19T00:59:41;100253.03;;;6.65;62.36
79123;BME280;68526;44.600;26.032;2023-11-19T01:00:03;100257.06;;;6.67;62.72
79123;BME280;68526;44.600;26.032;2023-11-19T01:00:24;100260.97;;;6.61;62.36
79123;BME280;68526;44.600;26.032;2023-11-19T01:00:42;100256.94;;;6.59;62.46
79123;BME280;68526;44.600;26.032;2023-11-19T01:00:58;100266.47;;;6.56;62.46
79123;BME280;68526;44.600;26.032;2023-11-19T01:01:15;100257.50;;;6.56;63.14
79123;BME280;68526;44.600;26.032;2023-11-19T01:01:31;100260.53;;;6.54;62.86
79123;BME280;68526;44.600;26.032;2023-11-19T01:01:47;100265.47;;;6.52;63.14
79123;BME280;68526;44.600;26.032;2023-11-19T01:02:04;100266.78;;;6.55;63.49
79123;BME280;68526;44.600;26.032;2023-11-19T01:02:21;100260.22;;;6.56;63.21
79123;BME280;68526;44.600;26.032;2023-11-19T01:02:37;100254.78;;;6.56;63.41
79123;BME280;68526;44.600;26.032;2023-11-19T01:02:53;100264.56;;;6.57;62.89
79123;BME280;68526;44.600;26.032;2023-11-19T01:03:09;100266.19;;;6.58;62.84
79123;BME280;68526;44.600;26.032;2023-11-19T01:03:24;100264.00;;;6.60;62.89
79123;BME280;68526;44.600;26.032;2023-11-19T01:03:41;100260.47;;;6.59;62.74
79123;BME280;68526;44.600;26.032;2023-11-19T01:03:58;100260.47;;;6.59;62.81
79123;BME280;68526;44.600;26.032;2023-11-19T01:04:13;100262.88;;;6.61;62.58
79123;BME280;68526;44.600;26.032;2023-11-19T01:04:30;100263.19;;;6.59;62.59
79123;BME280;68526;44.600;26.032;2023-11-19T01:04:48;100268.63;;;6.59;63.32
79123;BME280;68526;44.600;26.032;2023-11-19T01:05:07;100259.94;;;6.57;62.94
79123;BME280;68526;44.600;26.032;2023-11-19T01:05:23;100267.59;;;6.55;63.13
79123;BME280;68526;44.600;26.032;2023-11-19T01:05:41;100268.91;;;6.58;63.51
79123;BME280;68526;44.600;26.032;2023-11-19T01:05:57;100266.28;;;6.53;63.18
79123;BME280;68526;44.600;26.032;2023-11-19T01:06:15;100263.25;;;6.54;63.09
79123;BME280;68526;44.600;26.032;2023-11-19T01:06:31;100262.44;;;6.54;63.35
79123;BME280;68526;44.600;26.032;2023-11-19T01:06:47;100269.81;;;6.53;63.44
79123;BME280;68526;44.600;26.032;2023-11-19T01:07:04;100273.34;;;6.54;63.35
79123;BME280;68526;44.600;26.032;2023-11-19T01:07:20;100263.25;;;6.54;63.12
79123;BME280;68526;44.600;26.032;2023-11-19T01:07:37;100264.63;;;6.52;63.13
79123;BME280;68526;44.600;26.032;2023-11-19T01:07:54;100274.44;;;6.53;63.17
79123;BME280;68526;44.600;26.032;2023-11-19T01:08:11;100261.41;;;6.50;63.21
79123;BME280;68526;44.600;26.032;2023-11-19T01:08:28;100265.25;;;6.49;63.68
79123;BME280;68526;44.600;26.032;2023-11-19T01:08:45;100267.66;;;6.50;63.42
79123;BME280;68526;44.600;26.032;2023-11-19T01:09:01;100266.84;;;6.50;64.11
79123;BME280;68526;44.600;26.032;2023-11-19T01:09:17;100263.84;;;6.51;63.49
79123;BME280;68526;44.600;26.032;2023-11-19T01:09:33;100266.63;;;6.46;64.71
79123;BME280;68526;44.600;26.032;2023-11-19T01:09:51;100265.91;;;6.40;65.18
79123;BME280;68526;44.600;26.032;2023-11-19T01:10:07;100276.19;;;6.43;64.97
79123;BME280;68526;44.600;26.032;2023-11-19T01:10:23;100272.38;;;6.45;65.18
79123;BME280;68526;44.600;26.032;2023-11-19T01:10:39;100273.47;;;6.43;64.87
79123;BME280;68526;44.600;26.032;2023-11-19T01:10:55;100273.16;;;6.45;65.06
79123;BME280;68526;44.600;26.032;2023-11-19T01:11:19;100269.13;;;6.42;64.70
79123;BME280;68526;44.600;26.032;2023-11-19T01:11:36;100262.28;;;6.45;65.05
79123;BME280;68526;44.600;26.032;2023-11-19T01:11:53;100268.63;;;6.40;65.33
79123;BME280;68526;44.600;26.032;2023-11-19T01:12:09;100269.94;;;6.43;65.01
79123;BME280;68526;44.600;26.032;2023-11-19T01:12:25;100271.56;;;6.44;65.19
79123;BME280;68526;44.600;26.032;2023-11-19T01:12:41;100266.63;;;6.46;65.34
79123;BME280;68526;44.600;26.032;2023-11-19T01:12:57;100269.88;;;6.48;65.42
79123;BME280;68526;44.600;26.032;2023-11-19T01:13:13;100263.91;;;6.46;65.22
79123;BME280;68526;44.600;26.032;2023-11-19T01:13:30;100267.47;;;6.47;65.40
79123;BME280;68526;44.600;26.032;2023-11-19T01:13:46;100266.94;;;6.45;65.38
79123;BME280;68526;44.600;26.032;2023-11-19T01:14:02;100271.25;;;6.46;65.42
79123;BME280;68526;44.600;26.032;2023-11-19T01:14:17;100269.88;;;6.48;65.62
79123;BME280;68526;44.600;26.032;2023-11-19T01:14:33;100269.06;;;6.48;65.67
79123;BME280;68526;44.600;26.032;2023-11-19T01:14:49;100267.47;;;6.47;65.36
79123;BME280;68526;44.600;26.032;2023-11-19T01:15:05;100269.06;;;6.48;65.19
79123;BME280;68526;44.600;26.032;2023-11-19T01:15:22;100262.03;;;6.47;65.44
79123;BME280;68526;44.600;26.032;2023-11-19T01:15:39;100264.75;;;6.47;65.44
79123;BME280;68526;44.600;26.032;2023-11-19T01:15:56;100268.53;;;6.46;65.48
79123;BME280;68526;44.600;26.032;2023-11-19T01:16:12;100260.38;;;6.46;65.17
79123;BME280;68526;44.600;26.032;2023-11-19T01:16:28;100264.75;;;6.47;65.07
79123;BME280;68526;44.600;26.032;2023-11-19T01:16:44;100277.81;;;6.45;64.91
79123;BME280;68526;44.600;26.032;2023-11-19T01:17:01;100268.34;;;6.42;65.05
79123;BME280;68526;44.600;26.032;2023-11-19T01:17:16;100263.47;;;6.39;65.05
79123;BME280;68526;44.600;26.032;2023-11-19T01:17:33;100262.66;;;6.38;65.00
79123;BME280;68526;44.600;26.032;2023-11-19T01:17:49;100262.34;;;6.40;64.78
79123;BME280;68526;44.600;26.032;2023-11-19T01:18:05;100271.88;;;6.42;65.43
79123;BME280;68526;44.600;26.032;2023-11-19T01:18:21;100274.28;;;6.44;66.10
79123;BME280;68526;44.600;26.032;2023-11-19T01:18:37;100268.34;;;6.42;66.06
79123;BME280;68526;44.600;26.032;2023-11-19T01:18:53;100269.13;;;6.42;66.28
79123;BME280;68526;44.600;26.032;2023-11-19T01:19:09;100267.81;;;6.40;66.54
79123;BME280;68526;44.600;26.032;2023-11-19T01:19:26;100271.94;;;6.37;66.56
79123;BME280;68526;44.600;26.032;2023-11-19T01:19:43;100270.00;;;6.38;65.78
79123;BME280;68526;44.600;26.032;2023-11-19T01:19:59;100269.72;;;6.39;65.74
79123;BME280;68526;44.600;26.032;2023-11-19T01:20:15;100272.44;;;6.39;66.31
79123;BME280;68526;44.600;26.032;2023-11-19T01:20:31;100278.69;;;6.40;66.04
79123;BME280;68526;44.600;26.032;2023-11-19T01:20:49;100272.44;;;6.39;66.19
79123;BME280;68526;44.600;26.032;2023-11-19T01:21:05;100280.91;;;6.38;66.58
79123;BME280;68526;44.600;26.032;2023-11-19T01:21:21;100275.47;;;6.38;66.80
79123;BME280;68526;44.600;26.032;2023-11-19T01:21:37;100276.34;;;6.33;67.18
79123;BME280;68526;44.600;26.032;2023-11-19T01:21:53;100274.41;;;6.34;67.24
79123;BME280;68526;44.600;26.032;2023-11-19T01:22:09;100276.34;;;6.33;67.09
79123;BME280;68526;44.600;26.032;2023-11-19T01:22:25;100276.13;;;6.30;67.53
79123;BME280;68526;44.600;26.032;2023-11-19T01:22:41;100275.81;;;6.31;66.98
79123;BME280;68526;44.600;26.032;2023-11-19T01:22:57;100279.66;;;6.30;67.15
79123;BME280;68526;44.600;26.032;2023-11-19T01:23:13;100274.41;;;6.34;67.02
79123;BME280;68526;44.600;26.032;2023-11-19T01:23:29;100278.25;;;6.33;67.32
79123;BME280;68526;44.600;26.032;2023-11-19T01:23:46;100278.25;;;6.33;67.35
79123;BME280;68526;44.600;26.032;2023-11-19T01:24:02;100279.84;;;6.34;67.32
79123;BME280;68526;44.600;26.032;2023-11-19T01:24:19;100274.72;;;6.32;67.27
79123;BME280;68526;44.600;26.032;2023-11-19T01:24:35;100284.78;;;6.32;67.35
79123;BME280;68526;44.600;26.032;2023-11-19T01:24:52;100279.34;;;6.32;67.65
79123;BME280;68526;44.600;26.032;2023-11-19T01:25:09;100280.75;;;6.29;67.59
79123;BME280;68526;44.600;26.032;2023-11-19T01:25:25;100278.03;;;6.29;67.31
79123;BME280;68526;44.600;26.032;2023-11-19T01:25:41;100276.94;;;6.30;67.38